Orbital elements of PSLV DEB
| Launched | 21 October 2001 |
| Flight ended | – |
| Launch site | Satish Dhawan Space Centre, India (Formerly Sriharikota Launching Range) |
| Owner | India |
| NORAD ID | 35350 |
| Date fetched |
Epoch osculation |
Inc. [°] |
Ecc. | RA asc node [hr] |
Arg Peri. [°] |
Mean anom [°] |
Mean motion [rev/day] |
Abs. mag |
| Date fetched |
Epoch osculation |
Inc. [°] |
Ecc. | RA asc node [hr] |
Arg Peri. [°] |
Mean anom [°] |
Mean motion [rev/day] |
Abs. mag |
| 2026 May 01 17:56 | 2026 Apr 28 09:14:16 | 98.5125 | 0.00654 | 11.1770 | 179.6962 | 180.4285 | 14.55801 | – |
| 2026 Apr 30 17:56 | 2026 Apr 28 09:14:16 | 98.5125 | 0.00654 | 11.1770 | 179.6962 | 180.4285 | 14.55801 | – |
| 2026 Apr 29 17:57 | 2026 Apr 21 20:31:44 | 98.5130 | 0.00650 | 10.7332 | 199.6282 | 180.4285 | 14.55801 | – |
| 2026 Apr 28 17:56 | 2026 Apr 21 20:31:44 | 98.5130 | 0.00650 | 10.7332 | 199.6282 | 180.4285 | 14.55801 | – |
| 2026 Apr 27 17:58 | 2026 Apr 21 20:31:44 | 98.5130 | 0.00650 | 10.7332 | 199.6282 | 180.4285 | 14.55801 | – |
| 2026 Apr 26 17:58 | 2026 Apr 21 20:31:44 | 98.5130 | 0.00650 | 10.7332 | 199.6282 | 180.4285 | 14.55801 | – |
| 2026 Apr 25 17:58 | 2026 Apr 21 20:31:44 | 98.5130 | 0.00650 | 10.7332 | 199.6282 | 180.4285 | 14.55801 | – |
| 2026 Apr 24 17:59 | 2026 Apr 21 20:31:44 | 98.5130 | 0.00650 | 10.7332 | 199.6282 | 180.4285 | 14.55801 | – |
| 2026 Apr 23 17:57 | 2026 Apr 14 08:43:27 | 98.5148 | 0.00644 | 10.2236 | 222.8813 | 180.4285 | 14.55801 | – |
| 2026 Apr 22 17:57 | 2026 Apr 14 08:43:27 | 98.5148 | 0.00644 | 10.2236 | 222.8813 | 180.4285 | 14.55801 | – |
| 2026 Apr 21 17:57 | 2026 Apr 14 08:43:27 | 98.5148 | 0.00644 | 10.2236 | 222.8813 | 180.4285 | 14.55801 | – |
| 2026 Apr 20 17:57 | 2026 Apr 14 08:43:27 | 98.5148 | 0.00644 | 10.2236 | 222.8813 | 180.4285 | 14.55801 | – |
| 2026 Apr 19 17:58 | 2026 Apr 14 08:43:27 | 98.5148 | 0.00644 | 10.2236 | 222.8813 | 180.4285 | 14.55801 | – |
| 2026 Apr 18 17:56 | 2026 Apr 08 20:45:24 | 98.5177 | 0.00645 | 9.8498 | 239.9703 | 180.4285 | 14.55801 | – |
| 2026 Apr 16 17:57 | 2026 Apr 08 20:45:24 | 98.5177 | 0.00645 | 9.8498 | 239.9703 | 180.4285 | 14.55801 | – |
| 2026 Apr 14 17:57 | 2026 Apr 08 20:45:24 | 98.5177 | 0.00645 | 9.8498 | 239.9703 | 180.4285 | 14.55801 | – |
| 2026 Apr 13 17:57 | 2026 Apr 08 20:45:24 | 98.5177 | 0.00645 | 9.8498 | 239.9703 | 180.4285 | 14.55801 | – |
| 2026 Apr 12 17:57 | 2026 Apr 06 09:22:16 | 98.5152 | 0.00639 | 9.6813 | 247.7004 | 180.4285 | 14.55801 | – |
| 2026 Apr 11 17:57 | 2026 Apr 06 09:22:16 | 98.5152 | 0.00639 | 9.6813 | 247.7004 | 180.4285 | 14.55801 | – |
| 2026 Apr 10 17:58 | 2026 Apr 06 09:22:16 | 98.5152 | 0.00639 | 9.6813 | 247.7004 | 180.4285 | 14.55801 | – |
| 2026 Apr 09 18:01 | 2026 Apr 06 09:22:16 | 98.5152 | 0.00639 | 9.6813 | 247.7004 | 180.4285 | 14.55801 | – |
| 2026 Apr 08 17:57 | 2026 Apr 06 09:22:16 | 98.5152 | 0.00639 | 9.6813 | 247.7004 | 180.4285 | 14.55801 | – |
| 2026 Apr 07 17:57 | 2026 Mar 30 09:06:36 | 98.5196 | 0.00636 | 9.2047 | 269.5726 | 180.4285 | 14.55801 | – |
| 2026 Apr 06 17:57 | 2026 Mar 30 09:06:36 | 98.5196 | 0.00636 | 9.2047 | 269.5726 | 180.4285 | 14.55801 | – |
| 2026 Apr 05 17:56 | 2026 Mar 30 09:06:36 | 98.5196 | 0.00636 | 9.2047 | 269.5726 | 180.4285 | 14.55801 | – |
| 2026 Apr 04 17:57 | 2026 Mar 30 09:06:36 | 98.5196 | 0.00636 | 9.2047 | 269.5726 | 180.4285 | 14.55801 | – |